VVPQ

Phu Quoc Airport

Duong Dong, Vietnam
TAF VVPQ 252300Z 2600/2624 VRB02KT 9999 SCT017 BECMG 2601/2602 23010KT
Issued Valid From Valid To
Apr-25 @ 23:00 UTC
(5 hours ago)
Apr-26 @ 00:00 UTC
(4 hours ago)
Apr-27 @ 00:00 UTC
(in 20 hours)
Expired Click to View Apr-26 @ 00:00 to Apr-26 @ 01:00
TAF VVPQ 252300Z 2600/2624 VRB02KT 9999 SCT017
Wind Visibility Clouds
Variable at 2 knots 10,000+ meters
  • Scattered at 1,700' AGL
Becoming Apr-26 @ 01:00 to Apr-27 @ 00:00
BECMG 2601/2602 23010KT
Wind Visibility Clouds
230° at 10 knots 10,000+ meters
  • Scattered at 1,700' AGL
TAF VVPQ 252300Z 2600/2624 VRB02KT 9999 SCT017 BECMG 2601/2602 23010KT
Issued Apr-25 @ 23:00 UTC
(5 hours ago)
Valid From Apr-26 @ 00:00 UTC
(4 hours ago)
Valid To Apr-27 @ 00:00 UTC
(in 20 hours)
Apr-26 @ 00:00 - Apr-26 @ 01:00
Wind Visibility
Variable at 2 knots 10,000+ meters
Clouds
  • Scattered at 1,700' AGL
Becoming Apr-26 @ 01:00 - Apr-27 @ 00:00
Wind Visibility
230° at 10 knots 10,000+ meters
Clouds
  • Scattered at 1,700' AGL